Time;durP1;ratioP1;P1;durP2;ratioP2;P2;SDS_P1;SDS_P2;PMS_P1;PMS_P2;Temp;Humidity;BMP_temperature;BMP_pressure;BME280_temperature;BME280_humidity;BME280_pressure;Samples;Min_cycle;Max_cycle;Signal;HPM_P1;HPM_P2
2022/08/08 07:05:05;;;;;;;9.52;5.80;;;17.00;94.70;;;;;;5070616;28;20896;-49
2022/08/08 07:07:38;;;;;;;9.18;6.10;;;16.80;94.20;;;;;;5041221;28;20072;-51
2022/08/08 07:10:08;;;;;;;12.68;5.75;;;16.90;94.20;;;;;;5044162;28;20575;-53
2022/08/08 07:12:40;;;;;;;13.65;5.75;;;17.00;94.50;;;;;;5050500;28;20526;-53
2022/08/08 07:15:12;;;;;;;9.52;5.00;;;17.20;94.10;;;;;;5047995;28;20056;-55
2022/08/08 07:17:59;;;;;;;12.55;4.85;;;17.30;94.70;;;;;;5048403;28;20128;-50
2022/08/08 07:20:46;;;;;;;10.57;4.90;;;17.50;94.70;;;;;;5048458;28;20065;-53
2022/08/08 07:23:18;;;;;;;7.20;4.60;;;17.60;94.40;;;;;;5046619;28;20172;-55
2022/08/08 07:25:51;;;;;;;13.77;4.95;;;17.80;94.40;;;;;;5047883;28;20071;-56
2022/08/08 07:28:24;;;;;;;9.40;4.55;;;17.90;94.40;;;;;;5053736;28;20037;-53
2022/08/08 07:31:01;;;;;;;13.55;4.60;;;18.00;93.90;;;;;;5048175;28;20099;-50
2022/08/08 07:33:29;;;;;;;10.32;4.47;;;18.10;93.90;;;;;;5047469;28;20071;-53
2022/08/08 07:36:06;;;;;;;7.75;4.40;;;18.20;93.50;;;;;;5048296;28;20416;-44
2022/08/08 07:38:34;;;;;;;10.50;4.68;;;18.30;93.90;;;;;;5041304;28;20049;-55
2022/08/08 07:41:04;;;;;;;10.23;4.32;;;18.40;93.60;;;;;;5046830;28;20041;-54
2022/08/08 07:43:33;;;;;;;9.73;4.22;;;18.50;93.90;;;;;;5043594;28;20037;-52
2022/08/08 07:46:07;;;;;;;10.73;4.07;;;18.50;93.30;;;;;;5047813;28;20065;-51
2022/08/08 07:48:57;;;;;;;8.75;4.10;;;18.60;93.40;;;;;;5047791;28;20048;-54
2022/08/08 07:51:26;;;;;;;9.30;4.55;;;18.70;93.20;;;;;;5047574;28;20496;-49
2022/08/08 07:54:14;;;;;;;10.45;4.30;;;18.80;93.20;;;;;;5047692;28;20047;-54
2022/08/08 07:56:58;;;;;;;13.77;4.47;;;18.90;93.10;;;;;;5048386;28;20056;-50
2022/08/08 07:59:28;;;;;;;8.63;3.63;;;19.00;92.90;;;;;;5047863;28;20084;-51
2022/08/08 08:02:06;;;;;;;12.90;4.22;;;19.10;92.80;;;;;;5047343;28;20049;-49
2022/08/08 08:04:54;;;;;;;8.90;3.90;;;19.20;92.50;;;;;;5047628;28;20037;-52
2022/08/08 08:07:23;;;;;;;8.32;3.80;;;19.30;92.40;;;;;;5048306;28;20091;-52
2022/08/08 08:10:00;;;;;;;6.90;3.63;;;19.30;92.40;;;;;;5032029;28;20053;-52
2022/08/08 08:12:28;;;;;;;9.85;3.88;;;19.40;92.20;;;;;;5047254;28;21002;-54
2022/08/08 08:15:07;;;;;;;10.80;3.42;;;19.50;92.10;;;;;;5041501;28;20049;-54
2022/08/08 08:17:39;;;;;;;7.38;2.92;;;19.50;91.90;;;;;;5034219;28;20056;-52
2022/08/08 08:20:17;;;;;;;10.48;3.28;;;19.50;92.00;;;;;;5034347;28;20408;-58
2022/08/08 08:22:45;;;;;;;10.63;3.08;;;19.60;92.00;;;;;;5034086;28;20137;-51
2022/08/08 08:25:14;;;;;;;13.43;3.42;;;19.70;91.80;;;;;;5028738;28;20046;-49
2022/08/08 08:27:45;;;;;;;11.55;3.72;;;19.80;91.80;;;;;;5031217;28;20069;-55
2022/08/08 08:30:13;;;;;;;6.18;3.13;;;19.90;91.40;;;;;;5041867;28;20556;-58
2022/08/08 08:32:42;;;;;;;10.70;3.20;;;20.00;91.40;;;;;;5033863;28;20042;-51
2022/08/08 08:35:21;;;;;;;8.30;3.20;;;20.00;91.30;;;;;;5033715;28;20068;-47
2022/08/08 08:38:09;;;;;;;8.73;2.55;;;20.00;91.20;;;;;;5032616;28;20049;-52
2022/08/08 08:40:52;;;;;;;9.02;2.58;;;20.10;90.90;;;;;;5044347;28;20045;-55
2022/08/08 08:43:19;;;;;;;8.77;3.03;;;20.10;90.70;;;;;;5033541;28;20053;-55
2022/08/08 08:45:52;;;;;;;7.93;2.72;;;20.20;90.90;;;;;;5033811;28;20056;-50
2022/08/08 08:48:24;;;;;;;10.18;2.90;;;20.30;90.60;;;;;;5033625;28;20041;-52
2022/08/08 08:50:52;;;;;;;6.82;2.60;;;20.40;90.60;;;;;;5033722;28;20049;-54
2022/08/08 08:53:19;;;;;;;10.15;2.50;;;20.50;90.40;;;;;;5033436;28;20050;-56
2022/08/08 08:56:03;;;;;;;12.68;2.75;;;20.60;89.70;;;;;;5033430;28;20502;-55
2022/08/08 08:58:34;;;;;;;7.38;2.30;;;20.70;89.00;;;;;;5033487;28;20042;-48
2022/08/08 09:01:05;;;;;;;8.30;2.20;;;20.70;89.20;;;;;;5028573;28;20451;-53
2022/08/08 09:03:40;;;;;;;6.43;2.47;;;20.70;89.10;;;;;;5027061;28;20060;-54
2022/08/08 09:06:13;;;;;;;10.40;2.50;;;20.80;88.00;;;;;;5038171;28;20131;-55
2022/08/08 09:08:56;;;;;;;7.45;2.60;;;20.90;88.40;;;;;;5033359;28;20447;-54
2022/08/08 09:11:23;;;;;;;8.32;2.70;;;20.90;88.10;;;;;;5031602;28;20053;-55
2022/08/08 09:13:58;;;;;;;7.40;2.72;;;21.00;86.90;;;;;;5032220;28;20057;-53
2022/08/08 09:16:26;;;;;;;6.55;2.30;;;21.10;85.80;;;;;;5030509;28;20045;-57
2022/08/08 09:18:54;;;;;;;6.25;2.25;;;21.20;85.80;;;;;;5031008;28;20049;-52
2022/08/08 09:21:22;;;;;;;5.20;2.35;;;21.20;85.10;;;;;;5022825;28;20045;-56
2022/08/08 09:24:09;;;;;;;6.40;2.42;;;21.30;83.70;;;;;;5031198;28;20408;-47
2022/08/08 09:26:39;;;;;;;7.15;2.10;;;21.50;83.90;;;;;;5028809;28;20041;-53
2022/08/08 09:29:13;;;;;;;8.73;2.80;;;21.50;82.50;;;;;;5025596;28;20396;-54
2022/08/08 09:31:54;;;;;;;8.23;2.13;;;21.50;83.90;;;;;;5028881;28;20528;-52
2022/08/08 09:34:30;;;;;;;11.02;2.78;;;21.60;82.60;;;;;;5031354;28;20453;-52
2022/08/08 09:37:07;;;;;;;8.15;2.40;;;21.70;83.10;;;;;;5031002;28;20099;-58
2022/08/08 09:39:54;;;;;;;7.32;2.17;;;21.70;81.20;;;;;;5030654;28;20049;-52
2022/08/08 09:42:21;;;;;;;8.20;2.00;;;21.90;80.80;;;;;;5032699;28;20099;-55
2022/08/08 09:44:51;;;;;;;7.40;2.42;;;22.10;79.70;;;;;;5031809;28;20492;-51
2022/08/08 09:47:18;;;;;;;8.32;2.20;;;22.10;78.80;;;;;;5027208;28;20084;-54
2022/08/08 09:50:04;;;;;;;5.85;1.98;;;22.10;78.20;;;;;;5029497;28;20060;-53
2022/08/08 09:52:39;;;;;;;9.65;2.25;;;22.10;78.10;;;;;;5032617;28;20116;-55
2022/08/08 09:55:26;;;;;;;7.22;1.98;;;22.30;77.10;;;;;;5024540;28;20130;-54
2022/08/08 09:58:13;;;;;;;5.03;2.28;;;22.40;78.30;;;;;;5029485;28;20041;-54
2022/08/08 10:00:51;;;;;;;6.07;2.10;;;22.30;78.40;;;;;;5031752;28;20044;-53
2022/08/08 10:03:23;;;;;;;6.53;2.10;;;22.40;78.30;;;;;;5027161;28;20522;-56
2022/08/08 10:05:50;;;;;;;8.43;2.10;;;22.40;78.60;;;;;;5031019;28;20034;-59
2022/08/08 10:08:16;;;;;;;8.20;2.28;;;22.50;78.10;;;;;;5026364;28;20378;-53
2022/08/08 10:10:45;;;;;;;5.25;2.15;;;22.50;77.20;;;;;;5032463;28;20041;-50
2022/08/08 10:13:17;;;;;;;5.95;2.00;;;22.60;76.20;;;;;;5040301;28;20041;-56
2022/08/08 10:15:52;;;;;;;6.65;2.00;;;22.70;77.10;;;;;;5031137;28;20061;-57
2022/08/08 10:18:27;;;;;;;8.10;1.75;;;22.70;74.80;;;;;;5033093;28;20045;-51
2022/08/08 10:20:54;;;;;;;7.00;1.80;;;22.70;75.00;;;;;;5030659;28;20034;-54
2022/08/08 10:23:29;;;;;;;7.68;2.00;;;22.70;74.90;;;;;;5033099;28;20056;-55
2022/08/08 10:26:10;;;;;;;6.38;2.00;;;22.80;75.90;;;;;;5041992;28;20048;-57
2022/08/08 10:28:55;;;;;;;;;;;22.90;74.10;;;;;;5027002;28;20061;-56
2022/08/08 10:34:13;;;;;;;5.82;1.95;;;23.10;73.40;;;;;;5037596;28;20034;-54
2022/08/08 10:36:46;;;;;;;8.40;1.90;;;23.00;73.60;;;;;;5037017;28;20044;-52
2022/08/08 10:39:12;;;;;;;5.07;1.85;;;23.00;73.90;;;;;;5033648;28;20064;-51
2022/08/08 10:41:40;;;;;;;6.88;2.13;;;23.00;73.30;;;;;;5029276;28;20361;-51
2022/08/08 10:44:27;;;;;;;5.32;1.83;;;23.10;73.40;;;;;;5025035;28;20034;-53
2022/08/08 10:46:54;;;;;;;5.20;2.05;;;23.10;73.90;;;;;;5026102;28;20055;-56
2022/08/08 10:49:24;;;;;;;5.72;1.95;;;23.20;74.00;;;;;;5024765;28;20045;-50
2022/08/08 10:52:11;;;;;;;6.45;2.10;;;23.30;73.90;;;;;;5031264;28;20045;-50
2022/08/08 10:54:39;;;;;;;5.70;1.90;;;23.40;73.70;;;;;;5032478;28;20076;-55
2022/08/08 10:57:07;;;;;;;4.95;2.10;;;23.40;73.50;;;;;;5030460;28;20128;-51
2022/08/08 10:59:34;;;;;;;5.72;2.17;;;23.40;74.20;;;;;;5028560;28;20105;-56
2022/08/08 11:02:06;;;;;;;5.10;2.00;;;23.50;73.90;;;;;;5028545;28;20049;-56
2022/08/08 11:04:34;;;;;;;4.93;1.90;;;23.50;74.60;;;;;;5028998;28;20053;-50
2022/08/08 11:07:05;;;;;;;7.13;1.80;;;23.70;74.80;;;;;;5032380;28;20069;-57
2022/08/08 11:09:32;;;;;;;5.15;2.08;;;23.90;74.60;;;;;;5029744;28;20390;-58
2022/08/08 11:11:59;;;;;;;5.72;2.13;;;23.90;73.70;;;;;;5030854;28;20045;-54
2022/08/08 11:14:39;;;;;;;6.65;2.25;;;23.90;73.70;;;;;;5031360;28;20041;-53
2022/08/08 11:17:07;;;;;;;4.75;1.73;;;23.90;74.10;;;;;;5028562;28;20041;-52
2022/08/08 11:19:41;;;;;;;6.18;1.90;;;23.90;74.00;;;;;;5030651;28;20499;-52
2022/08/08 11:22:13;;;;;;;3.88;1.67;;;24.00;74.10;;;;;;5028852;28;20057;-56
2022/08/08 11:24:40;;;;;;;5.78;1.55;;;24.10;73.80;;;;;;5030158;28;20046;-54
2022/08/08 11:27:11;;;;;;;6.65;1.75;;;24.20;74.00;;;;;;5031312;28;20052;-51
2022/08/08 11:29:48;;;;;;;7.50;1.60;;;24.20;73.50;;;;;;5030959;28;20073;-58
2022/08/08 11:32:35;;;;;;;4.57;1.73;;;24.20;73.30;;;;;;5028918;28;20049;-56
2022/08/08 11:35:03;;;;;;;6.07;1.80;;;24.20;73.40;;;;;;5030806;28;20037;-47
2022/08/08 11:37:49;;;;;;;3.78;1.90;;;24.20;73.90;;;;;;5033038;28;20037;-57
2022/08/08 11:40:36;;;;;;;4.85;1.40;;;24.30;73.40;;;;;;5027779;28;20052;-53
2022/08/08 11:43:03;;;;;;;8.23;2.00;;;24.40;73.90;;;;;;5032100;28;20068;-55
2022/08/08 11:45:30;;;;;;;7.13;1.55;;;24.40;73.70;;;;;;5029282;28;20045;-49
2022/08/08 11:48:13;;;;;;;5.22;1.50;;;24.40;73.80;;;;;;5026408;28;20045;-49
2022/08/08 11:50:46;;;;;;;3.45;1.52;;;24.40;73.60;;;;;;5027243;28;20069;-49
2022/08/08 11:53:18;;;;;;;3.28;1.42;;;24.40;73.50;;;;;;5034096;28;20119;-52
2022/08/08 11:55:49;;;;;;;7.00;1.70;;;24.40;73.60;;;;;;5032747;28;20083;-52
2022/08/08 11:58:16;;;;;;;7.55;1.80;;;24.40;73.40;;;;;;5038638;28;20041;-56
2022/08/08 12:00:47;;;;;;;4.28;1.58;;;24.50;73.40;;;;;;5034357;28;20389;-55
2022/08/08 12:03:14;;;;;;;3.67;1.50;;;24.70;73.10;;;;;;5033441;28;20049;-53
2022/08/08 12:05:41;;;;;;;5.32;1.67;;;24.80;73.10;;;;;;5034802;28;20053;-55
2022/08/08 12:08:09;;;;;;;5.18;1.35;;;24.90;73.30;;;;;;5032232;28;20041;-55
2022/08/08 12:10:36;;;;;;;5.07;1.48;;;25.00;72.90;;;;;;5032016;28;20443;-56
2022/08/08 12:13:13;;;;;;;2.95;1.30;;;25.00;72.20;;;;;;5033238;28;20103;-56
2022/08/08 12:15:46;;;;;;;4.60;1.70;;;25.00;72.30;;;;;;5030422;28;20119;-55
2022/08/08 12:18:14;;;;;;;7.03;1.40;;;25.00;72.30;;;;;;5031518;28;20044;-49
2022/08/08 12:20:46;;;;;;;4.30;1.70;;;25.00;72.20;;;;;;5032122;28;20053;-51
2022/08/08 12:23:13;;;;;;;3.72;1.30;;;24.90;72.20;;;;;;5025462;28;20091;-49
2022/08/08 12:26:00;;;;;;;3.28;0.98;;;24.90;71.60;;;;;;5026773;28;20393;-52
2022/08/08 12:28:27;;;;;;;2.33;1.00;;;24.80;71.70;;;;;;5032335;28;20041;-52
2022/08/08 12:30:55;;;;;;;4.95;1.20;;;24.80;71.20;;;;;;5031180;28;20037;-55
2022/08/08 12:33:22;;;;;;;2.45;1.00;;;24.90;71.20;;;;;;5031028;28;20048;-48
2022/08/08 12:36:03;;;;;;;2.85;1.00;;;25.00;71.10;;;;;;5035135;28;20042;-51
2022/08/08 12:38:31;;;;;;;5.72;1.10;;;25.00;70.60;;;;;;5038336;28;20041;-52
2022/08/08 12:40:58;;;;;;;3.80;1.00;;;25.00;70.40;;;;;;5030149;28;20049;-57
2022/08/08 12:43:44;;;;;;;2.20;0.90;;;25.20;70.60;;;;;;5026317;28;20093;-54
2022/08/08 12:46:25;;;;;;;2.67;0.90;;;25.20;70.80;;;;;;5028530;28;20045;-51
2022/08/08 12:48:54;;;;;;;4.18;0.85;;;25.30;70.60;;;;;;5031699;28;20523;-56
2022/08/08 12:51:41;;;;;;;5.05;1.05;;;25.40;70.30;;;;;;5030741;28;20042;-55
2022/08/08 12:54:24;;;;;;;4.05;1.20;;;25.30;70.10;;;;;;5032077;28;20103;-52
2022/08/08 12:56:51;;;;;;;2.50;1.10;;;25.30;70.40;;;;;;5034654;28;20037;-54
2022/08/08 12:59:18;;;;;;;3.55;1.00;;;25.30;69.90;;;;;;5034880;28;20052;-56
2022/08/08 13:02:02;;;;;;;2.40;0.98;;;25.30;70.60;;;;;;5034645;28;20042;-52
2022/08/08 13:04:28;;;;;;;5.38;1.00;;;25.30;70.00;;;;;;5034730;28;20050;-53
2022/08/08 13:06:55;;;;;;;2.60;0.90;;;25.40;69.20;;;;;;5041311;28;20049;-56
2022/08/08 13:09:24;;;;;;;5.43;0.90;;;25.50;69.10;;;;;;5033877;28;20045;-59
2022/08/08 13:11:51;;;;;;;5.18;0.90;;;25.50;69.50;;;;;;5034662;28;20052;-53
2022/08/08 13:14:37;;;;;;;3.70;1.35;;;25.50;69.40;;;;;;5034369;28;20046;-56
2022/08/08 13:17:21;;;;;;;2.20;0.77;;;25.50;69.60;;;;;;5034592;28;20511;-55
2022/08/08 13:20:07;;;;;;;2.05;0.82;;;25.50;70.00;;;;;;5033364;28;20404;-55
2022/08/08 13:22:37;;;;;;;3.72;0.90;;;25.60;69.10;;;;;;5034457;28;20038;-57
2022/08/08 13:25:05;;;;;;;5.68;0.90;;;25.60;69.00;;;;;;5032373;28;20056;-47
2022/08/08 13:27:31;;;;;;;5.78;0.80;;;25.70;68.50;;;;;;5034304;28;20045;-53
2022/08/08 13:30:01;;;;;;;4.00;1.20;;;25.70;68.30;;;;;;5034316;28;20049;-57
2022/08/08 13:32:28;;;;;;;1.83;0.73;;;25.70;68.60;;;;;;5034388;28;20045;-55
2022/08/08 13:34:58;;;;;;;3.55;1.05;;;25.80;68.90;;;;;;5034066;28;20070;-54
2022/08/08 13:37:25;;;;;;;1.83;0.82;;;25.90;68.60;;;;;;5036105;28;20396;-53
2022/08/08 13:40:12;;;;;;;3.78;0.95;;;26.00;67.90;;;;;;5029711;28;20440;-53
2022/08/08 13:42:52;;;;;;;3.63;1.00;;;26.10;67.80;;;;;;5023038;28;20041;-53
2022/08/08 13:45:19;;;;;;;3.60;1.08;;;26.20;67.70;;;;;;5031844;28;20504;-55
2022/08/08 13:47:49;;;;;;;3.92;1.02;;;26.20;68.00;;;;;;5023035;28;20444;-57
2022/08/08 13:50:21;;;;;;;2.70;0.90;;;26.30;67.90;;;;;;5033345;28;20037;-53
2022/08/08 13:53:08;;;;;;;4.63;1.00;;;26.30;67.20;;;;;;5031104;28;20053;-49
2022/08/08 13:55:51;;;;;;;3.28;1.13;;;26.30;67.40;;;;;;5032884;28;20051;-56
2022/08/08 13:58:19;;;;;;;3.47;1.10;;;26.40;66.70;;;;;;5033613;28;20073;-57
2022/08/08 14:00:49;;;;;;;4.55;1.30;;;26.30;67.00;;;;;;5033553;28;20132;-52
2022/08/08 14:03:16;;;;;;;1.63;0.73;;;26.40;67.50;;;;;;5033399;28;20045;-51
2022/08/08 14:06:03;;;;;;;3.83;0.82;;;26.40;66.20;;;;;;5032420;28;20064;-53
2022/08/08 14:08:30;;;;;;;2.38;1.00;;;26.40;66.30;;;;;;5036421;28;20041;-54
2022/08/08 14:11:00;;;;;;;3.75;1.08;;;26.40;66.10;;;;;;5033535;28;20653;-56
2022/08/08 14:13:27;;;;;;;4.57;0.95;;;26.50;65.20;;;;;;5033043;28;20049;-52
2022/08/08 14:15:59;;;;;;;2.45;0.90;;;26.50;65.90;;;;;;5035891;28;20041;-58
2022/08/08 14:18:26;;;;;;;3.63;0.77;;;26.50;66.30;;;;;;5033267;28;20049;-50
2022/08/08 14:21:13;;;;;;;1.75;0.80;;;26.60;65.90;;;;;;5033812;28;20064;-50
2022/08/08 14:23:47;;;;;;;4.07;1.13;;;26.60;65.60;;;;;;5027071;28;20045;-63
2022/08/08 14:26:34;;;;;;;5.53;1.58;;;26.80;65.70;;;;;;5032352;28;20412;-53
2022/08/08 14:29:01;;;;;;;9.02;1.70;;;27.00;66.50;;;;;;5033251;28;20124;-57
2022/08/08 14:31:37;;;;;;;5.60;1.70;;;27.10;65.90;;;;;;5033068;28;20400;-59
2022/08/08 14:34:24;;;;;;;11.02;2.17;;;27.10;66.70;;;;;;5032745;28;20037;-57
2022/08/08 14:36:55;;;;;;;10.38;2.00;;;27.00;67.10;;;;;;5032872;28;20493;-56
2022/08/08 14:39:22;;;;;;;4.35;1.65;;;26.90;66.90;;;;;;5033066;28;20365;-50
2022/08/08 14:42:08;;;;;;;6.47;2.10;;;26.70;66.80;;;;;;5032054;28;20066;-53
2022/08/08 14:44:36;;;;;;;5.10;1.80;;;26.60;67.30;;;;;;5032913;28;20056;-49
2022/08/08 14:47:05;;;;;;;4.90;1.95;;;26.60;67.90;;;;;;5033949;28;20116;-59
2022/08/08 14:49:47;;;;;;;6.90;1.80;;;26.70;68.00;;;;;;5032871;28;20439;-54
2022/08/08 14:52:34;;;;;;;6.18;1.90;;;26.70;67.80;;;;;;5031471;28;20434;-52
2022/08/08 14:55:01;;;;;;;10.90;2.30;;;26.90;67.60;;;;;;5032873;28;20045;-51
2022/08/08 14:57:28;;;;;;;5.88;1.90;;;27.00;67.60;;;;;;5026267;28;20507;-52
2022/08/08 15:00:15;;;;;;;8.15;2.00;;;27.10;67.70;;;;;;5034950;28;20384;-52
2022/08/08 15:02:43;;;;;;;6.13;1.90;;;27.20;67.60;;;;;;5032823;28;20432;-50
2022/08/08 15:05:29;;;;;;;5.35;2.75;;;27.20;67.00;;;;;;5038599;28;20038;-53
2022/08/08 15:08:16;;;;;;;8.73;2.83;;;27.10;67.30;;;;;;5032664;28;20069;-53
2022/08/08 15:10:58;;;;;;;8.02;2.67;;;26.80;67.20;;;;;;5033840;28;20131;-50
2022/08/08 15:13:25;;;;;;;4.90;2.80;;;26.70;67.70;;;;;;5032300;28;20045;-55
2022/08/08 15:16:07;;;;;;;7.32;3.00;;;26.70;68.00;;;;;;5032344;28;20037;-56
2022/08/08 15:18:39;;;;;;;8.57;2.67;;;26.60;68.40;;;;;;5031557;28;20053;-52
2022/08/08 15:21:16;;;;;;;5.32;2.40;;;26.60;67.90;;;;;;5026076;28;20060;-51
2022/08/08 15:23:43;;;;;;;7.05;2.88;;;26.60;68.40;;;;;;5032430;28;20076;-54
2022/08/08 15:26:17;;;;;;;6.07;2.63;;;26.60;67.80;;;;;;5034003;28;20104;-53
2022/08/08 15:28:44;;;;;;;10.35;2.80;;;26.60;68.20;;;;;;5036298;28;20099;-56
2022/08/08 15:31:10;;;;;;;6.05;2.28;;;26.60;68.50;;;;;;5036320;28;20095;-53
2022/08/08 15:33:57;;;;;;;7.65;2.40;;;26.60;68.10;;;;;;5032730;28;20439;-49
2022/08/08 15:36:25;;;;;;;5.55;2.30;;;26.60;68.10;;;;;;5036229;28;20052;-57
2022/08/08 15:38:54;;;;;;;12.77;2.33;;;26.60;68.30;;;;;;5036026;28;20045;-57
2022/08/08 15:41:21;;;;;;;6.75;2.38;;;26.70;67.10;;;;;;5039902;28;20037;-57
2022/08/08 15:43:55;;;;;;;4.85;2.25;;;26.70;68.00;;;;;;5036107;28;20049;-53
2022/08/08 15:46:27;;;;;;;6.53;2.10;;;26.80;68.00;;;;;;5035909;28;20049;-57
2022/08/08 15:49:01;;;;;;;5.57;1.88;;;26.90;67.40;;;;;;5035969;28;20139;-52
2022/08/08 15:51:29;;;;;;;5.55;2.38;;;26.90;67.30;;;;;;5031839;28;20049;-62
2022/08/08 15:53:59;;;;;;;4.90;2.13;;;26.90;67.40;;;;;;5035878;28;20044;-53
2022/08/08 15:56:26;;;;;;;5.63;2.17;;;27.00;67.30;;;;;;5034480;28;20484;-58
2022/08/08 15:58:53;;;;;;;10.20;4.00;;;27.10;67.60;;;;;;5035631;28;20072;-59
2022/08/08 16:01:20;;;;;;;8.82;3.28;;;27.20;67.50;;;;;;5035567;28;20140;-53
2022/08/08 16:03:48;;;;;;;7.20;3.38;;;27.20;67.10;;;;;;5039417;28;20053;-49
2022/08/08 16:06:17;;;;;;;6.28;3.88;;;27.20;66.40;;;;;;5035618;28;20048;-54
2022/08/08 16:08:56;;;;;;;11.15;4.35;;;27.20;67.00;;;;;;5038595;28;20598;-48
2022/08/08 16:11:43;;;;;;;11.57;7.50;;;27.30;67.50;;;;;;5035347;28;20943;-55
2022/08/08 16:14:30;;;;;;;11.30;7.55;;;27.70;67.50;;;;;;5035657;28;20128;-57
2022/08/08 16:16:58;;;;;;;17.27;9.52;;;28.30;67.10;;;;;;5034100;28;20047;-51
2022/08/08 16:19:26;;;;;;;15.50;9.48;;;28.70;65.90;;;;;;5035369;28;20120;-56
2022/08/08 16:21:52;;;;;;;13.35;7.63;;;29.10;65.50;;;;;;5035538;28;20044;-55
2022/08/08 16:24:21;;;;;;;13.60;6.53;;;29.50;65.50;;;;;;5035455;28;20041;-55
2022/08/08 16:26:48;;;;;;;10.18;5.30;;;29.70;64.70;;;;;;5035361;28;20132;-50
2022/08/08 16:29:19;;;;;;;9.15;4.63;;;29.60;64.90;;;;;;5035363;28;20431;-53
2022/08/08 16:32:04;;;;;;;7.53;3.78;;;29.60;65.30;;;;;;5035265;28;20354;-51
2022/08/08 16:34:45;;;;;;;8.50;4.05;;;29.70;64.70;;;;;;5035316;28;20073;-48
2022/08/08 16:37:12;;;;;;;6.32;3.38;;;29.80;64.70;;;;;;5035148;28;20107;-57
2022/08/08 16:39:41;;;;;;;6.43;2.30;;;30.00;64.60;;;;;;5035153;28;20045;-55
2022/08/08 16:42:28;;;;;;;6.20;2.08;;;30.20;64.50;;;;;;5035340;28;20096;-51
2022/08/08 16:44:57;;;;;;;6.18;1.95;;;30.50;64.20;;;;;;5035061;28;20488;-55
2022/08/08 16:47:25;;;;;;;4.97;1.80;;;30.60;63.80;;;;;;5033696;28;20045;-56
2022/08/08 16:50:08;;;;;;;3.85;1.73;;;30.70;63.50;;;;;;5034875;28;20034;-51
2022/08/08 16:52:41;;;;;;;4.25;1.70;;;30.70;63.80;;;;;;5034503;28;20037;-52
2022/08/08 16:55:28;;;;;;;5.63;1.52;;;30.80;63.40;;;;;;5034735;28;20041;-54
2022/08/08 16:58:17;;;;;;;5.65;1.60;;;30.60;63.70;;;;;;5033592;28;20053;-53
2022/08/08 17:00:46;;;;;;;4.40;1.52;;;30.60;63.50;;;;;;5034975;28;20041;-59
2022/08/08 17:03:16;;;;;;;5.70;1.60;;;30.70;63.30;;;;;;5035511;28;20041;-53
2022/08/08 17:06:03;;;;;;;7.18;1.60;;;30.60;63.30;;;;;;5037056;28;20057;-49
2022/08/08 17:08:30;;;;;;;6.55;1.50;;;30.70;63.50;;;;;;5034702;28;20045;-58
2022/08/08 17:10:57;;;;;;;4.53;1.52;;;30.70;63.70;;;;;;5034613;28;20111;-58
2022/08/08 17:13:36;;;;;;;6.75;1.48;;;30.70;63.40;;;;;;5034715;28;20045;-56
2022/08/08 17:16:15;;;;;;;5.20;1.40;;;30.60;63.60;;;;;;5034197;28;20037;-57
2022/08/08 17:18:42;;;;;;;5.57;1.35;;;30.60;63.60;;;;;;5028027;28;20076;-48
2022/08/08 17:21:11;;;;;;;6.15;1.55;;;30.50;63.50;;;;;;5028085;28;20042;-50
2022/08/08 17:23:39;;;;;;;6.40;1.70;;;30.60;63.20;;;;;;5028282;28;20447;-55
2022/08/08 17:26:25;;;;;;;4.57;1.55;;;30.70;63.30;;;;;;5030616;28;20041;-51
2022/08/08 17:28:55;;;;;;;4.30;1.20;;;30.70;63.20;;;;;;5034164;28;20508;-50
2022/08/08 17:31:21;;;;;;;4.97;1.50;;;30.70;63.20;;;;;;5034010;28;20053;-53
2022/08/08 17:34:08;;;;;;;3.28;1.30;;;30.70;63.10;;;;;;5033523;28;20140;-52
2022/08/08 17:36:55;;;;;;;5.80;1.60;;;30.70;63.50;;;;;;5034011;28;20049;-53
2022/08/08 17:39:28;;;;;;;5.78;1.73;;;30.70;63.70;;;;;;5034073;28;20045;-54
2022/08/08 17:42:15;;;;;;;3.88;1.40;;;30.70;63.50;;;;;;5033996;28;20505;-60
2022/08/08 17:44:43;;;;;;;6.93;1.40;;;30.60;63.40;;;;;;5034175;28;20033;-54
2022/08/08 17:47:10;;;;;;;4.38;1.20;;;30.50;63.40;;;;;;5033369;28;20490;-55
2022/08/08 17:49:49;;;;;;;6.50;1.60;;;30.50;63.50;;;;;;5033569;28;20053;-54
2022/08/08 17:52:17;;;;;;;5.80;1.38;;;30.30;63.40;;;;;;5033136;28;20037;-55
2022/08/08 17:54:44;;;;;;;3.85;1.50;;;30.10;63.80;;;;;;5033770;28;20072;-51
2022/08/08 17:57:17;;;;;;;4.75;1.50;;;29.80;64.10;;;;;;5033660;28;20044;-57
2022/08/08 17:59:44;;;;;;;6.55;1.20;;;29.70;64.20;;;;;;5033598;28;20065;-57
2022/08/08 18:02:11;;;;;;;3.83;1.30;;;29.60;64.30;;;;;;5033334;28;20049;-54
2022/08/08 18:04:46;;;;;;;6.10;1.40;;;29.60;64.40;;;;;;5036631;28;20095;-53
2022/08/08 18:07:16;;;;;;;5.68;1.40;;;29.50;64.70;;;;;;5037539;28;20053;-54
2022/08/08 18:10:03;;;;;;;2.92;1.10;;;29.60;64.70;;;;;;5032582;28;20041;-60
2022/08/08 18:12:29;;;;;;;5.18;1.40;;;29.50;64.80;;;;;;5033765;28;20121;-53
2022/08/08 18:14:56;;;;;;;3.67;1.15;;;29.50;65.00;;;;;;5036797;28;20045;-55
2022/08/08 18:17:25;;;;;;;3.78;1.30;;;29.60;64.70;;;;;;5033083;28;20042;-53
2022/08/08 18:20:12;;;;;;;3.72;1.02;;;29.50;65.00;;;;;;5033343;28;20128;-51
2022/08/08 18:22:59;;;;;;;5.32;1.40;;;29.30;65.10;;;;;;5033142;28;20065;-53
2022/08/08 18:25:26;;;;;;;5.20;1.38;;;29.10;65.70;;;;;;5033177;28;20042;-57
2022/08/08 18:28:03;;;;;;;9.35;1.33;;;29.00;65.80;;;;;;5031972;28;20052;-52
2022/08/08 18:30:29;;;;;;;2.75;1.20;;;29.00;66.10;;;;;;5033170;28;20404;-54
2022/08/08 18:32:57;;;;;;;7.63;1.35;;;28.70;66.20;;;;;;5033190;28;20049;-59
2022/08/08 18:35:24;;;;;;;5.13;1.25;;;28.20;66.90;;;;;;5032878;28;20045;-55
2022/08/08 18:38:01;;;;;;;4.47;1.50;;;27.70;67.80;;;;;;5033166;28;20481;-56
2022/08/08 18:40:42;;;;;;;4.45;1.10;;;27.20;68.70;;;;;;5033124;28;20072;-55
2022/08/08 18:43:11;;;;;;;3.92;1.23;;;26.70;70.00;;;;;;5034349;28;20059;-52
2022/08/08 18:45:42;;;;;;;5.05;1.40;;;26.30;70.80;;;;;;5032835;28;20042;-53
2022/08/08 18:48:29;;;;;;;4.70;1.40;;;26.10;71.40;;;;;;5031485;28;20106;-55
2022/08/08 18:50:55;;;;;;;3.97;1.30;;;25.90;71.70;;;;;;5034805;28;20049;-50
2022/08/08 18:53:24;;;;;;;3.58;1.20;;;25.70;72.10;;;;;;5032792;28;20084;-52
2022/08/08 18:56:11;;;;;;;5.63;1.48;;;25.50;72.50;;;;;;5032743;28;20038;-56
2022/08/08 18:58:40;;;;;;;4.25;1.35;;;25.20;73.10;;;;;;5032561;28;20119;-54
2022/08/08 19:01:07;;;;;;;3.03;1.20;;;24.90;73.40;;;;;;5033046;28;20092;-55
2022/08/08 19:03:55;;;;;;;5.97;1.25;;;24.70;74.00;;;;;;5032376;28;20131;-55
2022/08/08 19:06:36;;;;;;;6.70;1.40;;;24.60;74.40;;;;;;5031910;28;20045;-55
2022/08/08 19:09:03;;;;;;;4.13;1.50;;;24.50;74.60;;;;;;5031183;28;20704;-52
2022/08/08 19:11:40;;;;;;;6.25;1.80;;;24.30;75.60;;;;;;5032744;28;20199;-56
2022/08/08 19:14:12;;;;;;;6.13;1.70;;;24.20;75.60;;;;;;5034989;28;20117;-56
2022/08/08 19:16:46;;;;;;;5.37;1.70;;;24.00;75.80;;;;;;5032554;28;20091;-54
2022/08/08 19:19:13;;;;;;;2.17;1.27;;;23.90;76.10;;;;;;5032412;28;20038;-56
2022/08/08 19:21:40;;;;;;;7.57;1.48;;;23.70;75.20;;;;;;5032666;28;20055;-57
2022/08/08 19:24:15;;;;;;;3.95;1.30;;;23.60;75.40;;;;;;5032525;28;20100;-53
2022/08/08 19:27:02;;;;;;;2.40;1.10;;;23.60;75.40;;;;;;5032471;28;20049;-53
2022/08/08 19:29:29;;;;;;;3.53;1.55;;;23.50;75.80;;;;;;5031120;28;20167;-57
2022/08/08 19:31:56;;;;;;;4.13;1.75;;;23.40;76.00;;;;;;5032354;28;20050;-52
2022/08/08 19:34:23;;;;;;;5.75;1.38;;;23.40;76.30;;;;;;5032460;28;20045;-51
2022/08/08 19:37:06;;;;;;;5.43;1.65;;;23.30;76.60;;;;;;5032403;28;20128;-52
2022/08/08 19:39:42;;;;;;;5.40;1.70;;;23.20;77.30;;;;;;5032369;28;20129;-51
2022/08/08 19:42:11;;;;;;;4.63;1.50;;;23.10;77.70;;;;;;5032173;28;20045;-55
2022/08/08 19:44:39;;;;;;;4.18;1.50;;;23.00;78.40;;;;;;5044113;28;20042;-57
2022/08/08 19:47:15;;;;;;;4.38;2.05;;;22.90;78.40;;;;;;5032317;28;20064;-56
2022/08/08 19:49:59;;;;;;;4.57;1.60;;;22.70;79.30;;;;;;5032465;28;20046;-54
2022/08/08 19:52:28;;;;;;;7.38;1.77;;;22.60;79.30;;;;;;5028279;28;20099;-56
2022/08/08 19:55:01;;;;;;;4.80;1.70;;;22.60;80.00;;;;;;5032300;28;20076;-56
2022/08/08 19:57:30;;;;;;;5.10;1.77;;;22.50;80.10;;;;;;5031152;28;20045;-50
2022/08/08 19:59:57;;;;;;;5.78;1.63;;;22.40;80.60;;;;;;5032283;28;20043;-53
2022/08/08 20:02:26;;;;;;;3.08;1.55;;;22.30;81.70;;;;;;5032411;28;20041;-51
2022/08/08 20:04:54;;;;;;;4.18;1.80;;;22.30;82.20;;;;;;5031629;28;20136;-52
2022/08/08 20:07:21;;;;;;;3.28;1.50;;;22.20;82.90;;;;;;5036010;28;20041;-57
2022/08/08 20:10:08;;;;;;;5.13;2.20;;;22.20;82.80;;;;;;5032115;28;20057;-56
2022/08/08 20:12:35;;;;;;;4.95;2.03;;;22.10;82.90;;;;;;5033918;28;20512;-57
2022/08/08 20:15:03;;;;;;;5.72;2.50;;;22.10;83.20;;;;;;5040558;28;20041;-58
2022/08/08 20:17:42;;;;;;;4.78;2.25;;;22.10;83.60;;;;;;5035523;28;20377;-58
2022/08/08 20:20:10;;;;;;;5.80;2.28;;;22.00;84.00;;;;;;5035746;28;20072;-52
2022/08/08 20:22:41;;;;;;;3.78;2.13;;;22.00;84.10;;;;;;5035645;28;20555;-55
2022/08/08 20:25:09;;;;;;;5.18;2.30;;;22.00;84.20;;;;;;5029091;28;20084;-52